createdAt,value
2018-07-11T00:01:30.432Z,13.00
2018-07-11T00:03:59.936Z,13.10
2018-07-11T00:06:29.783Z,13.10
2018-07-11T00:08:59.236Z,13.20
2018-07-11T00:11:28.732Z,13.20
2018-07-11T00:13:58.147Z,13.30
2018-07-11T00:16:27.974Z,13.30
2018-07-11T00:18:58.229Z,13.30
2018-07-11T00:21:27.765Z,13.30
2018-07-11T00:23:58.198Z,13.30
2018-07-11T00:26:28.241Z,13.30
2018-07-11T00:28:57.682Z,13.30
2018-07-11T00:31:27.236Z,13.20
2018-07-11T00:33:57.718Z,13.20
2018-07-11T00:36:27.941Z,13.20
2018-07-11T00:38:57.417Z,13.20
2018-07-11T00:41:27.049Z,13.20
2018-07-11T00:43:56.584Z,13.20
2018-07-11T00:46:25.983Z,13.20
2018-07-11T00:53:53.218Z,13.30
2018-07-11T00:56:22.908Z,13.20
2018-07-11T00:58:53.376Z,13.10
2018-07-11T01:01:24.210Z,13.10
2018-07-11T01:03:59.413Z,13.10
2018-07-11T01:06:29.197Z,13.20
2018-07-11T01:11:36.554Z,13.30
2018-07-11T01:14:07.528Z,13.30
2018-07-11T01:16:36.871Z,13.40
2018-07-11T01:19:11.556Z,13.50
2018-07-11T01:21:40.764Z,13.50
2018-07-11T01:24:10.120Z,13.50
2018-07-11T01:26:40.186Z,13.60
2018-07-11T01:31:38.817Z,13.60
2018-07-11T01:34:08.264Z,13.70
2018-07-11T01:36:37.574Z,13.70
2018-07-11T01:39:06.806Z,13.70
2018-07-11T01:41:36.358Z,13.60
2018-07-11T01:44:06.493Z,13.60
2018-07-11T01:46:49.090Z,13.50
2018-07-11T01:49:18.501Z,13.50
2018-07-11T01:51:58.830Z,13.50
2018-07-11T01:54:28.994Z,13.50
2018-07-11T01:56:58.372Z,13.50
2018-07-11T01:59:30.929Z,13.60
2018-07-11T02:02:00.453Z,13.70
2018-07-11T02:04:29.965Z,13.70
2018-07-11T02:06:59.467Z,13.70
2018-07-11T02:09:30.203Z,13.80
2018-07-11T02:11:59.653Z,13.80
2018-07-11T02:14:29.347Z,13.80
2018-07-11T02:16:59.310Z,13.70
2018-07-11T02:19:28.860Z,13.60
2018-07-11T02:21:58.662Z,13.60
2018-07-11T02:24:28.387Z,13.50
2018-07-11T02:26:58.258Z,13.50
2018-07-11T02:29:29.341Z,13.40
2018-07-11T02:31:59.124Z,13.40
2018-07-11T02:34:35.665Z,13.40
2018-07-11T02:37:05.654Z,13.30
2018-07-11T02:39:35.507Z,13.40
2018-07-11T02:42:05.384Z,13.40
2018-07-11T02:44:36.439Z,13.50
2018-07-11T02:47:11.170Z,13.50
2018-07-11T02:49:40.824Z,13.50
2018-07-11T02:52:10.542Z,13.50
2018-07-11T02:54:41.262Z,13.50
2018-07-11T02:57:10.835Z,13.60
2018-07-11T02:59:40.954Z,13.60
2018-07-11T03:02:10.612Z,13.60
2018-07-11T03:04:40.837Z,13.50
2018-07-11T03:07:11.167Z,13.50
2018-07-11T03:09:40.711Z,13.50
2018-07-11T03:12:10.418Z,13.60
2018-07-11T03:14:42.801Z,13.50
2018-07-11T03:17:12.336Z,13.60
2018-07-11T03:19:41.907Z,13.60
2018-07-11T03:22:11.338Z,13.70
2018-07-11T03:24:41.840Z,13.70
2018-07-11T03:27:11.389Z,13.70
2018-07-11T03:29:41.755Z,13.70
2018-07-11T03:32:11.427Z,13.80
2018-07-11T03:34:40.929Z,13.80
2018-07-11T03:37:11.621Z,13.80
2018-07-11T03:39:42.102Z,13.80
2018-07-11T03:42:11.859Z,13.80
2018-07-11T03:44:41.483Z,13.80
2018-07-11T03:47:11.039Z,13.80
2018-07-11T03:49:40.797Z,13.80
2018-07-11T03:52:10.759Z,13.80
2018-07-11T03:54:40.174Z,13.70
2018-07-11T03:57:10.011Z,13.70
2018-07-11T03:59:39.646Z,13.70
2018-07-11T04:02:09.869Z,13.70
2018-07-11T04:04:39.995Z,13.70
2018-07-11T04:07:10.621Z,13.70
2018-07-11T04:09:40.273Z,13.70
2018-07-11T04:12:13.365Z,13.80
2018-07-11T04:14:42.923Z,13.80
2018-07-11T04:17:12.783Z,13.80
2018-07-11T04:19:43.076Z,13.90
2018-07-11T04:22:13.883Z,13.90
2018-07-11T04:24:44.420Z,13.90
2018-07-11T04:27:14.036Z,14.00
2018-07-11T04:29:44.156Z,14.00
2018-07-11T04:32:13.960Z,14.00
2018-07-11T04:34:43.467Z,14.00
2018-07-11T04:37:13.952Z,14.10
2018-07-11T04:39:43.681Z,14.00
2018-07-11T04:42:14.217Z,14.00
2018-07-11T04:44:44.488Z,14.10
2018-07-11T04:47:14.130Z,14.10
2018-07-11T04:49:50.501Z,14.10
2018-07-11T04:52:20.329Z,14.10
2018-07-11T04:54:50.483Z,14.20
2018-07-11T04:57:20.558Z,14.20
2018-07-11T05:00:16.142Z,14.20
2018-07-11T05:02:45.910Z,14.20
2018-07-11T05:05:16.433Z,14.20
2018-07-11T05:07:46.365Z,14.30
2018-07-11T05:10:15.993Z,14.30
2018-07-11T05:12:45.516Z,14.30
2018-07-11T05:15:15.136Z,14.40
2018-07-11T05:17:44.793Z,14.40
2018-07-11T05:20:14.735Z,14.30
2018-07-11T05:22:44.224Z,14.20
2018-07-11T05:25:13.828Z,14.20
2018-07-11T05:27:43.436Z,14.30
2018-07-11T05:30:13.010Z,14.20
2018-07-11T05:32:43.084Z,14.30
2018-07-11T05:35:13.330Z,14.30
2018-07-11T05:37:42.908Z,14.30
2018-07-11T05:40:12.535Z,14.30
2018-07-11T05:42:43.021Z,14.40
2018-07-11T05:45:12.399Z,14.50
2018-07-11T05:47:41.953Z,14.60
2018-07-11T05:50:11.712Z,14.90
2018-07-11T05:52:40.996Z,14.80
2018-07-11T05:55:10.471Z,15.00
2018-07-11T05:57:40.054Z,15.20
2018-07-11T06:00:09.856Z,15.60
2018-07-11T06:02:39.400Z,15.60
2018-07-11T06:05:09.469Z,15.50
2018-07-11T06:07:40.120Z,15.70
2018-07-11T06:10:09.846Z,16.00
2018-07-11T06:12:39.408Z,16.40
2018-07-11T06:15:08.854Z,16.60
2018-07-11T06:17:38.429Z,16.70
2018-07-11T06:20:10.483Z,17.20
2018-07-11T06:22:40.727Z,17.40
2018-07-11T06:27:39.132Z,18.30
2018-07-11T06:30:09.886Z,18.60
2018-07-11T06:32:39.165Z,18.90
2018-07-11T06:37:37.513Z,18.70
2018-07-11T06:40:07.174Z,17.60
2018-07-11T06:42:36.654Z,17.40
2018-07-11T06:45:06.064Z,16.80
2018-07-11T06:47:35.413Z,16.30
2018-07-11T06:50:04.852Z,16.30
2018-07-11T06:52:34.409Z,16.90
2018-07-11T06:55:04.199Z,17.20
2018-07-11T06:57:33.637Z,17.50
2018-07-11T07:00:05.685Z,17.70
2018-07-11T07:02:36.733Z,17.50
2018-07-11T07:05:07.630Z,16.90
2018-07-11T07:07:38.049Z,16.90
2018-07-11T07:10:07.535Z,16.70
2018-07-11T07:12:38.031Z,16.30
2018-07-11T07:15:08.637Z,16.10
2018-07-11T07:17:37.972Z,16.10
2018-07-11T07:20:11.612Z,16.10
2018-07-11T07:22:41.630Z,15.80
2018-07-11T07:25:11.778Z,15.90
2018-07-11T07:27:41.292Z,16.40
2018-07-11T07:30:10.894Z,16.70
2018-07-11T07:32:40.211Z,16.80
2018-07-11T07:35:09.603Z,16.70
2018-07-11T07:37:39.564Z,16.60
2018-07-11T07:40:09.332Z,16.60
2018-07-11T07:42:44.088Z,16.40
2018-07-11T07:45:13.351Z,16.40
2018-07-11T07:47:44.924Z,16.40
2018-07-11T07:50:15.420Z,16.30
2018-07-11T07:52:44.878Z,16.20
2018-07-11T07:55:14.385Z,16.20
2018-07-11T07:57:44.269Z,16.40
2018-07-11T08:00:15.097Z,16.70
2018-07-11T08:02:44.583Z,16.50
2018-07-11T08:05:14.111Z,16.80
2018-07-11T08:07:44.042Z,16.70
2018-07-11T08:10:13.812Z,16.90
2018-07-11T08:12:44.565Z,17.20
2018-07-11T08:15:13.855Z,17.50
2018-07-11T08:17:43.189Z,17.20
2018-07-11T08:20:14.047Z,17.30
2018-07-11T08:23:20.679Z,17.50
2018-07-11T08:26:02.527Z,17.60
2018-07-11T08:30:48.464Z,17.20
2018-07-11T08:36:33.952Z,17.00
2018-07-11T08:39:19.870Z,17.20
2018-07-11T08:42:07.637Z,17.30
2018-07-11T08:44:55.086Z,17.30
2018-07-11T08:50:07.189Z,17.00
2018-07-11T08:53:52.462Z,17.10
2018-07-11T08:58:35.471Z,17.30
2018-07-11T09:03:18.587Z,17.30
2018-07-11T09:08:05.113Z,17.30
2018-07-11T09:10:42.693Z,17.50
2018-07-11T09:13:22.033Z,17.60
2018-07-11T09:16:14.824Z,17.50
2018-07-11T09:21:01.241Z,17.80
2018-07-11T09:23:55.906Z,18.10
2018-07-11T09:26:25.472Z,17.60
2018-07-11T09:28:55.193Z,17.80
2018-07-11T09:34:00.887Z,18.10
2018-07-11T09:36:30.259Z,18.00
2018-07-11T09:39:00.658Z,18.10
2018-07-11T09:41:34.337Z,18.00
2018-07-11T09:44:03.883Z,18.50
2018-07-11T09:46:34.392Z,18.40
2018-07-11T09:49:03.930Z,18.30
2018-07-11T09:51:33.327Z,18.10
2018-07-11T09:54:03.338Z,18.00
2018-07-11T09:56:33.332Z,18.30
2018-07-11T09:59:03.211Z,18.20
2018-07-11T10:01:32.794Z,18.20
2018-07-11T10:04:02.866Z,18.10
2018-07-11T10:06:32.150Z,18.00
2018-07-11T10:09:01.546Z,18.10
2018-07-11T10:11:31.113Z,18.30
2018-07-11T10:14:00.698Z,18.00
2018-07-11T10:16:33.946Z,17.70
2018-07-11T10:19:07.809Z,17.70
2018-07-11T10:21:37.071Z,17.60
2018-07-11T10:24:08.804Z,17.50
2018-07-11T10:26:38.349Z,17.50
2018-07-11T10:29:07.756Z,17.40
2018-07-11T10:31:37.213Z,17.40
2018-07-11T10:34:06.760Z,17.50
2018-07-11T10:36:36.101Z,17.70
2018-07-11T10:39:06.534Z,17.80
2018-07-11T10:41:36.025Z,17.60
2018-07-11T10:44:05.753Z,17.80
2018-07-11T10:46:35.476Z,18.00
2018-07-11T10:49:04.981Z,18.20
2018-07-11T10:51:38.445Z,18.00
2018-07-11T10:54:07.802Z,17.60
2018-07-11T10:56:38.498Z,17.50
2018-07-11T10:59:08.801Z,17.20
2018-07-11T11:01:38.154Z,17.00
2018-07-11T11:04:07.533Z,17.00
2018-07-11T11:06:36.763Z,16.70
2018-07-11T11:09:06.774Z,16.70
2018-07-11T11:11:36.124Z,16.90
2018-07-11T11:14:05.535Z,17.00
2018-07-11T11:16:34.896Z,17.10
2018-07-11T11:19:04.467Z,17.20
2018-07-11T11:21:39.083Z,17.30
2018-07-11T11:24:09.594Z,17.60
2018-07-11T11:26:38.903Z,17.80
2018-07-11T11:29:08.185Z,18.10
2018-07-11T11:31:37.587Z,18.50
2018-07-11T11:34:07.573Z,19.00
2018-07-11T11:36:37.021Z,19.20
2018-07-11T11:39:07.384Z,19.10
2018-07-11T11:41:38.417Z,19.60
2018-07-11T11:44:11.123Z,19.80
2018-07-11T11:46:49.526Z,19.30
2018-07-11T11:49:19.350Z,19.10
2018-07-11T11:51:55.471Z,19.10
2018-07-11T11:56:58.416Z,18.70
2018-07-11T11:59:34.230Z,18.80
2018-07-11T12:02:03.047Z,19.00
2018-07-11T12:04:31.937Z,19.50
2018-07-11T12:07:00.815Z,19.40
2018-07-11T12:09:29.648Z,19.10
2018-07-11T12:12:01.371Z,18.80
2018-07-11T12:14:30.478Z,18.70
2018-07-11T12:16:59.689Z,18.50
2018-07-11T12:19:28.567Z,18.30
2018-07-11T12:21:57.486Z,18.30
2018-07-11T12:24:26.464Z,18.30
2018-07-11T12:26:55.410Z,18.30
2018-07-11T12:29:24.438Z,18.70
2018-07-11T12:31:53.341Z,18.80
2018-07-11T12:34:23.166Z,18.80
2018-07-11T12:36:53.398Z,19.40
2018-07-11T12:39:22.341Z,19.70
2018-07-11T12:41:51.271Z,19.70
2018-07-11T12:44:20.148Z,19.70
2018-07-11T12:46:49.159Z,19.30
2018-07-11T12:49:18.069Z,19.20
2018-07-11T12:51:46.937Z,19.20
2018-07-11T12:54:16.142Z,19.10
2018-07-11T12:56:45.078Z,19.00
2018-07-11T12:59:13.998Z,19.00
2018-07-11T13:01:42.936Z,18.70
2018-07-11T13:04:11.856Z,18.50
2018-07-11T13:06:41.047Z,18.40
2018-07-11T13:09:10.354Z,18.30
2018-07-11T13:14:07.676Z,18.40
2018-07-11T13:16:36.494Z,18.40
2018-07-11T13:19:05.607Z,18.10
2018-07-11T13:21:34.484Z,18.10
2018-07-11T13:24:03.382Z,18.20
2018-07-11T13:26:32.267Z,18.40
2018-07-11T13:29:01.074Z,18.50
2018-07-11T13:31:30.009Z,18.30
2018-07-11T13:33:58.899Z,18.60
2018-07-11T13:36:27.791Z,18.80
2018-07-11T13:38:56.601Z,18.80
2018-07-11T13:41:25.517Z,18.80
2018-07-11T13:43:54.404Z,19.40
2018-07-11T13:46:36.876Z,19.40
2018-07-11T13:49:05.775Z,19.40
2018-07-11T13:51:35.080Z,19.60
2018-07-11T13:54:04.003Z,19.80
2018-07-11T13:56:33.006Z,19.90
2018-07-11T13:59:14.139Z,19.70
2018-07-11T14:01:54.984Z,19.80
2018-07-11T14:04:23.954Z,19.80
2018-07-11T14:06:53.254Z,19.70
2018-07-11T14:09:22.723Z,19.50
2018-07-11T14:11:52.515Z,19.70
2018-07-11T14:14:21.395Z,19.50
2018-07-11T14:16:50.347Z,19.10
2018-07-11T14:19:19.209Z,19.20
2018-07-11T14:21:48.147Z,19.10
2018-07-11T14:24:17.216Z,19.30
2018-07-11T14:26:46.155Z,19.70
2018-07-11T14:29:15.146Z,20.00
2018-07-11T14:31:44.081Z,20.20
2018-07-11T14:34:13.218Z,20.20
2018-07-11T14:36:42.478Z,20.40
2018-07-11T14:39:11.310Z,21.10
2018-07-11T14:41:40.163Z,21.50
2018-07-11T14:44:09.138Z,21.60
2018-07-11T14:46:38.096Z,21.60
2018-07-11T14:49:07.065Z,21.60
2018-07-11T14:51:36.250Z,21.50
2018-07-11T14:54:05.030Z,21.40
2018-07-11T14:56:34.023Z,21.40
2018-07-11T14:59:03.459Z,21.40
2018-07-11T15:01:32.366Z,21.20
2018-07-11T15:04:02.533Z,20.50
2018-07-11T15:06:32.609Z,20.70
2018-07-11T15:09:01.787Z,21.00
2018-07-11T15:11:30.580Z,21.20
2018-07-11T15:13:59.515Z,21.50
2018-07-11T15:16:28.557Z,21.80
2018-07-11T15:18:57.407Z,21.30
2018-07-11T15:21:26.364Z,21.10
2018-07-11T15:23:55.304Z,21.20
2018-07-11T15:26:24.194Z,21.60
2018-07-11T15:28:53.118Z,21.50
2018-07-11T15:31:22.254Z,21.40
2018-07-11T15:33:52.715Z,21.80
2018-07-11T15:36:21.658Z,21.90
2018-07-11T15:38:50.747Z,22.00
2018-07-11T15:41:19.658Z,21.50
2018-07-11T15:43:49.062Z,20.80
2018-07-11T15:46:18.038Z,20.60
2018-07-11T15:48:46.973Z,20.50
2018-07-11T15:51:15.915Z,20.40
2018-07-11T15:53:44.848Z,20.50
2018-07-11T15:56:13.842Z,21.20
2018-07-11T15:58:44.570Z,21.80
2018-07-11T16:01:13.356Z,22.00
2018-07-11T16:03:46.150Z,22.20
2018-07-11T16:06:16.373Z,22.70
2018-07-11T16:08:50.586Z,23.10
2018-07-11T16:11:19.957Z,23.40
2018-07-11T16:13:49.171Z,22.70
2018-07-11T16:16:18.105Z,22.80
2018-07-11T16:18:47.434Z,22.60
2018-07-11T16:21:16.367Z,22.60
2018-07-11T16:26:14.147Z,22.50
2018-07-11T16:31:11.911Z,21.90
2018-07-11T16:33:40.767Z,21.90
2018-07-11T16:36:09.982Z,22.30
2018-07-11T16:38:38.862Z,22.20
2018-07-11T16:41:07.782Z,21.70
2018-07-11T16:46:05.332Z,20.80
2018-07-11T16:48:34.475Z,20.80
2018-07-11T16:51:03.455Z,21.20
2018-07-11T16:53:32.395Z,21.70
2018-07-11T16:56:01.450Z,22.10
2018-07-11T16:58:31.472Z,21.80
2018-07-11T17:01:00.967Z,21.50
2018-07-11T17:03:30.292Z,21.10
2018-07-11T17:06:07.375Z,20.80
2018-07-11T17:08:40.752Z,20.30
2018-07-11T17:11:27.581Z,20.00
2018-07-11T17:13:59.860Z,19.80
2018-07-11T17:16:34.601Z,19.70
2018-07-11T17:19:08.583Z,19.70
2018-07-11T17:21:44.130Z,19.50
2018-07-11T17:24:16.263Z,19.40
2018-07-11T17:26:46.608Z,19.30
2018-07-11T17:29:24.614Z,19.30
2018-07-11T17:32:01.651Z,19.40
2018-07-11T17:34:30.825Z,19.30
2018-07-11T17:37:02.354Z,19.40
2018-07-11T17:39:45.975Z,19.50
2018-07-11T17:42:16.510Z,19.50
2018-07-11T17:45:21.455Z,19.50
2018-07-11T17:50:44.192Z,19.40
2018-07-11T17:53:17.418Z,19.40
2018-07-11T17:55:55.814Z,19.40
2018-07-11T18:01:22.773Z,19.20
2018-07-11T18:04:16.458Z,19.20
2018-07-11T18:06:55.742Z,19.20
2018-07-11T18:09:24.784Z,19.20
2018-07-11T18:11:59.642Z,19.10
2018-07-11T18:14:42.560Z,19.10
2018-07-11T18:17:19.690Z,19.10
2018-07-11T18:19:57.296Z,19.10
2018-07-11T18:22:39.334Z,19.10
2018-07-11T18:26:35.141Z,19.00
2018-07-11T18:29:20.054Z,18.90
2018-07-11T18:33:00.680Z,18.90
2018-07-11T18:35:44.444Z,18.90
2018-07-11T18:38:22.732Z,18.80
2018-07-11T18:41:08.646Z,18.70
2018-07-11T18:47:59.166Z,18.70
2018-07-11T18:50:40.047Z,18.60
2018-07-11T18:53:14.715Z,18.50
2018-07-11T18:57:07.926Z,18.40
2018-07-11T19:00:45.979Z,18.40
2018-07-11T19:03:29.275Z,18.30
2018-07-11T19:06:09.766Z,18.20
2018-07-11T19:08:50.901Z,18.10
2018-07-11T19:11:28.965Z,18.00
2018-07-11T19:14:08.945Z,17.80
2018-07-11T19:19:20.958Z,17.60
2018-07-11T19:21:58.259Z,17.50
2018-07-11T19:24:39.073Z,17.40
2018-07-11T19:30:20.623Z,17.40
2018-07-11T19:39:21.429Z,17.30
2018-07-11T19:42:42.451Z,17.20
2018-07-11T20:47:26.499Z,17.10
2018-07-11T20:55:43.403Z,17.10
